Time;durP1;ratioP1;P1;durP2;ratioP2;P2;SDS_P1;SDS_P2;PMS_P1;PMS_P2;Temp;Humidity;BMP_temperature;BMP_pressure;BME280_temperature;BME280_humidity;BME280_pressure;Samples;Min_cycle;Max_cycle;Signal;HPM_P1;HPM_P2
2022/03/06 00:00:18;;;;;;;5.60;2.87;;;19.50;43.40;;;;;;4976984;28;20544;-70
2022/03/06 00:02:43;;;;;;;3.87;2.70;;;19.50;44.20;;;;;;4977509;28;20175;-70
2022/03/06 00:05:09;;;;;;;6.13;2.50;;;19.60;44.80;;;;;;4977495;28;20644;-67
2022/03/06 00:07:35;;;;;;;7.17;2.70;;;19.60;44.60;;;;;;4995026;28;20535;-68
2022/03/06 00:10:03;;;;;;;9.60;2.90;;;19.60;44.40;;;;;;4976830;28;20899;-69
2022/03/06 00:12:29;;;;;;;6.60;2.70;;;19.60;43.00;;;;;;4974122;28;20195;-70
2022/03/06 00:14:55;;;;;;;8.20;2.93;;;19.60;44.30;;;;;;4957885;28;20412;-69
2022/03/06 00:17:20;;;;;;;3.87;2.57;;;19.50;43.80;;;;;;4976361;28;20205;-69
2022/03/06 00:19:46;;;;;;;7.87;2.63;;;19.50;43.80;;;;;;4976829;28;20691;-68
2022/03/06 00:22:12;;;;;;;9.87;2.60;;;19.50;44.00;;;;;;4976988;28;20211;-69
2022/03/06 00:24:37;;;;;;;5.83;2.87;;;19.60;44.00;;;;;;4977278;28;20183;-68
2022/03/06 00:27:03;;;;;;;4.67;3.30;;;19.50;44.20;;;;;;4976724;28;20238;-69
2022/03/06 00:29:29;;;;;;;10.03;2.97;;;19.50;44.50;;;;;;4976640;28;20175;-68
2022/03/06 00:31:55;;;;;;;12.33;2.77;;;19.50;44.20;;;;;;4976826;28;20450;-68
2022/03/06 00:34:20;;;;;;;8.27;2.70;;;19.50;44.40;;;;;;4976981;28;20179;-69
2022/03/06 00:36:46;;;;;;;5.53;2.90;;;19.50;44.20;;;;;;4976876;28;20214;-67
2022/03/06 00:39:11;;;;;;;15.73;2.90;;;19.50;44.40;;;;;;4975809;28;20221;-67
2022/03/06 00:41:38;;;;;;;3.43;2.60;;;19.50;44.30;;;;;;4976690;28;20231;-67
2022/03/06 00:44:03;;;;;;;4.63;2.60;;;19.50;44.20;;;;;;4976828;28;20182;-69
2022/03/06 00:46:29;;;;;;;8.80;3.07;;;19.50;44.40;;;;;;4976394;28;20446;-68
2022/03/06 00:48:55;;;;;;;18.93;3.20;;;19.50;44.60;;;;;;4976419;28;20194;-67
2022/03/06 00:51:20;;;;;;;5.50;2.57;;;19.40;44.70;;;;;;4976540;28;20215;-67
2022/03/06 00:53:46;;;;;;;5.60;3.00;;;19.40;44.70;;;;;;4994147;28;20163;-68
2022/03/06 00:56:12;;;;;;;13.43;3.20;;;19.40;44.70;;;;;;4976500;28;20636;-68
2022/03/06 00:58:38;;;;;;;10.20;3.13;;;19.40;44.60;;;;;;4993738;28;21459;-67
2022/03/06 01:01:05;;;;;;;5.57;2.90;;;19.40;44.50;;;;;;4976120;28;20253;-68
2022/03/06 01:03:31;;;;;;;4.00;2.50;;;19.40;44.60;;;;;;4976345;28;20506;-66
2022/03/06 01:05:57;;;;;;;3.90;2.67;;;19.40;44.50;;;;;;4975764;28;20425;-66
2022/03/06 01:08:23;;;;;;;6.87;3.20;;;19.40;44.60;;;;;;4991229;28;20442;-67
2022/03/06 01:10:50;;;;;;;5.77;3.00;;;19.30;44.70;;;;;;4976034;28;20432;-66
2022/03/06 01:13:19;;;;;;;4.17;2.80;;;19.40;44.90;;;;;;4975924;28;20218;-68
2022/03/06 01:15:44;;;;;;;7.50;2.70;;;19.30;44.50;;;;;;4976301;28;20501;-65
2022/03/06 01:18:11;;;;;;;4.43;2.63;;;19.30;44.60;;;;;;4976177;28;20564;-68
2022/03/06 01:20:38;;;;;;;4.47;2.80;;;19.30;44.50;;;;;;4975606;28;20211;-69
2022/03/06 01:23:05;;;;;;;11.40;3.33;;;19.30;44.50;;;;;;4976223;28;20414;-67
2022/03/06 01:25:31;;;;;;;9.70;2.50;;;19.30;44.50;;;;;;4976020;28;20457;-66
2022/03/06 01:27:56;;;;;;;30.90;3.90;;;19.40;46.00;;;;;;4976118;28;20462;-67
2022/03/06 01:30:23;;;;;;;5.60;3.00;;;19.40;44.30;;;;;;4975732;28;20544;-67
2022/03/06 01:32:52;;;;;;;5.47;2.50;;;19.30;42.70;;;;;;4975735;28;20183;-68
2022/03/06 01:35:19;;;;;;;7.90;2.40;;;19.20;42.80;;;;;;4975968;28;20419;-67
2022/03/06 01:37:45;;;;;;;8.07;2.63;;;19.20;42.90;;;;;;4975973;28;20465;-68
2022/03/06 01:40:12;;;;;;;11.30;3.03;;;19.10;42.80;;;;;;4975438;28;20419;-68
2022/03/06 01:42:40;;;;;;;10.77;3.10;;;19.10;43.10;;;;;;4975193;28;20441;-67
2022/03/06 01:45:08;;;;;;;4.37;2.50;;;19.10;43.30;;;;;;4975789;28;20472;-67
2022/03/06 01:47:41;;;;;;;5.90;3.10;;;19.10;43.20;;;;;;4976183;28;20429;-69
2022/03/06 01:50:15;;;;;;;10.40;2.50;;;19.10;43.20;;;;;;4975403;28;20513;-65
2022/03/06 01:52:41;;;;;;;7.43;3.77;;;19.10;43.20;;;;;;4975911;28;20417;-67
2022/03/06 01:55:08;;;;;;;7.73;2.67;;;19.20;43.20;;;;;;4975792;28;20803;-69
2022/03/06 01:57:34;;;;;;;8.93;2.90;;;19.10;43.10;;;;;;4975790;28;20462;-66
2022/03/06 02:00:07;;;;;;;4.00;2.70;;;19.20;43.10;;;;;;4974960;28;20496;-69
2022/03/06 02:02:33;;;;;;;12.60;2.57;;;19.20;43.00;;;;;;4976063;28;20182;-66
2022/03/06 02:05:00;;;;;;;10.77;3.03;;;19.20;43.10;;;;;;4975577;28;20511;-67
2022/03/06 02:07:26;;;;;;;8.73;2.67;;;19.20;43.20;;;;;;4975687;28;20430;-67
2022/03/06 02:09:52;;;;;;;6.40;3.47;;;19.20;43.30;;;;;;4975662;28;20429;-66
2022/03/06 02:12:24;;;;;;;7.73;3.60;;;19.30;43.30;;;;;;4975730;28;20446;-68
2022/03/06 02:14:54;;;;;;;4.03;2.87;;;19.30;43.40;;;;;;4975691;28;20418;-67
2022/03/06 02:17:21;;;;;;;13.23;2.53;;;19.30;43.10;;;;;;4975541;28;20958;-68
2022/03/06 02:20:00;;;;;;;4.30;2.87;;;19.30;43.10;;;;;;4977884;28;20438;-65
2022/03/06 02:22:28;;;;;;;5.80;2.60;;;19.30;42.90;;;;;;4979223;28;20426;-66
2022/03/06 02:24:55;;;;;;;5.80;3.23;;;19.30;43.00;;;;;;4979444;28;20414;-68
2022/03/06 02:27:21;;;;;;;6.07;3.00;;;19.30;43.10;;;;;;4979228;28;20418;-68
2022/03/06 02:29:47;;;;;;;11.40;3.03;;;19.30;43.10;;;;;;4978817;28;20449;-66
2022/03/06 02:32:16;;;;;;;3.67;2.60;;;19.30;43.00;;;;;;4978863;28;20959;-66
2022/03/06 02:34:43;;;;;;;3.73;2.90;;;19.30;43.10;;;;;;4995555;28;20410;-68
2022/03/06 02:37:10;;;;;;;6.53;2.70;;;19.30;43.00;;;;;;4979113;28;20465;-67
2022/03/06 02:39:36;;;;;;;4.40;2.60;;;19.30;43.10;;;;;;4996257;28;20411;-67
2022/03/06 02:42:02;;;;;;;14.47;2.60;;;19.30;43.10;;;;;;4978917;28;20545;-67
2022/03/06 02:44:28;;;;;;;6.40;2.30;;;19.30;43.20;;;;;;4995410;28;20258;-66
2022/03/06 02:46:54;;;;;;;4.30;2.70;;;19.40;43.20;;;;;;4978620;28;20445;-66
2022/03/06 02:49:20;;;;;;;5.13;2.70;;;19.30;43.20;;;;;;4978471;28;20907;-65
2022/03/06 02:51:47;;;;;;;4.30;3.13;;;19.30;43.50;;;;;;4978857;28;20203;-65
2022/03/06 02:54:14;;;;;;;6.73;5.57;;;19.30;43.30;;;;;;4978719;28;20438;-65
2022/03/06 02:56:40;;;;;;;5.30;3.30;;;19.30;42.90;;;;;;4978650;28;20822;-65
2022/03/06 02:59:07;;;;;;;4.00;2.77;;;19.30;43.10;;;;;;4977932;28;20426;-65
2022/03/06 03:01:40;;;;;;;3.30;2.43;;;19.30;43.00;;;;;;4978744;28;20446;-67
2022/03/06 03:04:10;;;;;;;5.23;2.53;;;19.30;43.00;;;;;;4978794;28;20415;-65
2022/03/06 03:06:36;;;;;;;5.00;2.93;;;19.30;43.20;;;;;;4978326;28;20500;-68
2022/03/06 03:09:04;;;;;;;6.40;3.17;;;19.20;43.10;;;;;;4978118;28;20423;-65
2022/03/06 03:11:31;;;;;;;4.50;2.90;;;19.30;43.20;;;;;;4978498;28;20936;-65
2022/03/06 03:13:57;;;;;;;6.33;3.30;;;19.20;43.50;;;;;;4978531;28;20422;-65
2022/03/06 03:16:23;;;;;;;7.23;2.80;;;19.20;43.00;;;;;;4978384;28;20423;-68
2022/03/06 03:18:48;;;;;;;4.70;3.20;;;19.20;43.00;;;;;;4978129;28;20934;-66
2022/03/06 03:21:15;;;;;;;5.30;2.80;;;19.30;43.40;;;;;;4977692;28;20227;-68
2022/03/06 03:23:41;;;;;;;12.33;5.70;;;19.30;44.30;;;;;;4978293;28;20985;-69
2022/03/06 03:26:06;;;;;;;11.90;6.23;;;18.70;39.30;;;;;;4978306;28;20233;-68
2022/03/06 03:28:32;;;;;;;18.50;7.57;;;18.10;37.20;;;;;;4977890;28;20261;-68
2022/03/06 03:30:57;;;;;;;15.23;7.70;;;17.80;36.70;;;;;;4977727;28;20655;-67
2022/03/06 03:33:23;;;;;;;13.63;7.90;;;17.50;36.20;;;;;;4978099;28;20517;-67
2022/03/06 03:35:49;;;;;;;11.10;6.63;;;17.20;35.80;;;;;;4977773;28;20209;-67
2022/03/06 03:38:14;;;;;;;16.33;7.33;;;17.40;39.00;;;;;;4977620;28;20214;-67
2022/03/06 03:40:40;;;;;;;13.33;6.97;;;17.90;40.30;;;;;;4977470;28;20194;-64
2022/03/06 03:43:06;;;;;;;12.77;6.87;;;18.20;40.10;;;;;;4977829;28;20180;-66
2022/03/06 03:45:32;;;;;;;17.30;6.70;;;18.40;40.40;;;;;;4977964;28;20540;-68
2022/03/06 03:47:57;;;;;;;11.47;5.40;;;18.50;40.60;;;;;;4977752;28;20524;-68
2022/03/06 03:50:23;;;;;;;9.70;5.10;;;18.50;40.80;;;;;;4977356;28;20560;-67
2022/03/06 03:52:49;;;;;;;10.00;5.90;;;18.50;41.00;;;;;;4994924;28;20525;-68
2022/03/06 03:55:14;;;;;;;8.83;5.20;;;18.50;41.00;;;;;;4977443;28;20666;-68
2022/03/06 03:57:40;;;;;;;9.20;5.17;;;18.60;41.20;;;;;;4977503;28;20210;-67
2022/03/06 04:00:08;;;;;;;10.00;5.20;;;18.60;41.40;;;;;;4976830;28;20178;-67
2022/03/06 04:02:34;;;;;;;16.73;5.43;;;18.60;41.30;;;;;;4977265;28;20317;-67
2022/03/06 04:05:00;;;;;;;8.10;4.50;;;18.60;41.40;;;;;;4977384;28;20950;-66
2022/03/06 04:07:25;;;;;;;8.80;5.00;;;18.60;41.40;;;;;;4977358;28;20905;-66
2022/03/06 04:09:51;;;;;;;10.30;5.30;;;18.60;41.50;;;;;;4976641;28;20458;-67
2022/03/06 04:12:17;;;;;;;12.17;5.20;;;18.60;41.60;;;;;;4977328;28;20234;-66
2022/03/06 04:14:42;;;;;;;11.77;5.00;;;18.60;42.00;;;;;;4977319;28;20182;-66
2022/03/06 04:17:08;;;;;;;9.47;5.10;;;18.60;41.80;;;;;;4994408;28;20210;-66
2022/03/06 04:19:34;;;;;;;10.47;4.60;;;18.60;42.00;;;;;;4976856;28;20217;-66
2022/03/06 04:21:59;;;;;;;9.83;4.33;;;18.60;42.80;;;;;;4977073;28;20301;-67
2022/03/06 04:24:26;;;;;;;9.30;4.93;;;18.60;42.20;;;;;;4977031;28;20628;-65
2022/03/06 04:26:52;;;;;;;9.20;4.67;;;18.60;42.30;;;;;;4977174;28;20178;-67
2022/03/06 04:29:18;;;;;;;7.60;4.30;;;18.60;42.00;;;;;;4976482;28;20426;-67
2022/03/06 04:31:43;;;;;;;8.50;4.50;;;18.60;42.10;;;;;;4976517;28;20256;-68
2022/03/06 04:34:09;;;;;;;8.77;4.70;;;18.60;42.20;;;;;;4976925;28;20240;-66
2022/03/06 04:36:34;;;;;;;7.20;4.10;;;18.60;42.20;;;;;;4994390;28;20660;-66
2022/03/06 04:39:00;;;;;;;6.87;4.07;;;18.60;42.00;;;;;;4976490;28;20173;-65
2022/03/06 04:41:26;;;;;;;5.93;4.00;;;18.60;42.10;;;;;;4976058;28;20256;-66
2022/03/06 04:43:52;;;;;;;5.73;4.23;;;18.60;42.00;;;;;;4976513;28;20694;-66
2022/03/06 04:46:18;;;;;;;8.10;4.67;;;18.60;42.10;;;;;;4976774;28;20220;-65
2022/03/06 04:48:44;;;;;;;10.27;4.40;;;18.60;42.20;;;;;;4976465;28;20417;-68
2022/03/06 04:51:10;;;;;;;7.00;4.27;;;18.60;42.20;;;;;;4976097;28;20942;-67
2022/03/06 04:53:36;;;;;;;7.90;4.67;;;18.60;42.00;;;;;;4976501;28;20191;-66
2022/03/06 04:56:03;;;;;;;13.43;4.20;;;18.60;42.20;;;;;;4976569;28;20187;-67
2022/03/06 04:58:29;;;;;;;5.73;3.80;;;18.70;43.00;;;;;;4975806;28;20493;-64
2022/03/06 05:00:54;;;;;;;11.33;3.60;;;18.80;42.40;;;;;;4976123;28;20492;-66
2022/03/06 05:03:20;;;;;;;9.87;4.40;;;18.80;41.30;;;;;;4976437;28;20183;-66
2022/03/06 05:05:46;;;;;;;5.87;4.40;;;18.80;41.60;;;;;;4976431;28;20211;-68
2022/03/06 05:08:11;;;;;;;7.40;4.67;;;18.80;41.70;;;;;;4976132;28;20701;-68
2022/03/06 05:10:37;;;;;;;6.90;4.33;;;18.80;41.70;;;;;;4975809;28;20230;-65
2022/03/06 05:13:03;;;;;;;9.77;4.53;;;18.80;41.60;;;;;;4976287;28;20190;-66
2022/03/06 05:15:29;;;;;;;8.30;4.47;;;18.80;41.30;;;;;;4992291;28;20179;-65
2022/03/06 05:17:54;;;;;;;9.83;3.73;;;18.80;41.30;;;;;;4993716;28;20986;-66
2022/03/06 05:20:20;;;;;;;14.53;4.87;;;18.80;41.70;;;;;;4975649;28;20207;-65
2022/03/06 05:22:46;;;;;;;11.83;4.60;;;18.80;41.70;;;;;;4975970;28;20623;-67
2022/03/06 05:25:12;;;;;;;7.47;4.67;;;18.80;41.40;;;;;;4975846;28;20182;-66
2022/03/06 05:27:38;;;;;;;9.00;4.40;;;18.80;41.50;;;;;;4975828;28;20183;-67
2022/03/06 05:30:07;;;;;;;11.90;4.47;;;18.80;41.50;;;;;;4975533;28;20446;-67
2022/03/06 05:32:33;;;;;;;10.70;4.73;;;18.80;41.50;;;;;;4991965;28;20434;-65
2022/03/06 05:34:59;;;;;;;6.53;3.87;;;18.80;41.70;;;;;;4975976;28;20928;-65
2022/03/06 05:37:24;;;;;;;10.13;4.10;;;18.80;41.50;;;;;;4993581;28;20283;-64
2022/03/06 05:39:50;;;;;;;6.37;4.40;;;18.80;42.20;;;;;;4975620;28;20175;-66
2022/03/06 05:42:16;;;;;;;6.07;3.53;;;18.80;41.50;;;;;;4976006;28;20202;-65
2022/03/06 05:44:42;;;;;;;7.63;4.00;;;18.80;41.50;;;;;;4976006;28;20270;-65
2022/03/06 05:47:08;;;;;;;7.27;3.80;;;18.80;41.40;;;;;;4975757;28;20426;-67
2022/03/06 05:49:34;;;;;;;5.40;4.07;;;18.80;41.50;;;;;;4975172;28;20756;-66
2022/03/06 05:51:59;;;;;;;7.60;4.50;;;18.70;41.50;;;;;;4976133;28;20458;-66
2022/03/06 05:54:25;;;;;;;6.67;4.20;;;18.70;41.50;;;;;;4979948;28;20616;-65
2022/03/06 05:56:51;;;;;;;7.30;4.00;;;18.70;41.40;;;;;;4979774;28;20216;-64
2022/03/06 05:59:16;;;;;;;13.67;4.30;;;18.80;41.70;;;;;;4979153;28;20178;-66
2022/03/06 06:01:42;;;;;;;8.00;3.97;;;18.80;41.70;;;;;;4979713;28;20293;-67
2022/03/06 06:04:07;;;;;;;7.10;4.33;;;18.70;41.80;;;;;;4979732;28;20334;-66
2022/03/06 06:06:33;;;;;;;8.47;4.30;;;18.70;42.10;;;;;;4979795;28;20178;-65
2022/03/06 06:08:59;;;;;;;7.43;4.10;;;18.70;42.10;;;;;;4979106;28;20210;-66
2022/03/06 06:11:25;;;;;;;5.97;4.10;;;18.70;42.00;;;;;;4979399;28;20772;-66
2022/03/06 06:13:51;;;;;;;8.60;4.67;;;18.70;42.30;;;;;;4979551;28;20174;-67
2022/03/06 06:16:17;;;;;;;8.73;4.50;;;18.70;42.30;;;;;;4979445;28;20252;-67
2022/03/06 06:18:43;;;;;;;8.83;4.20;;;18.60;42.40;;;;;;4979096;28;20429;-68
2022/03/06 06:21:11;;;;;;;6.80;4.53;;;18.70;42.70;;;;;;4979021;28;20505;-66
2022/03/06 06:23:36;;;;;;;7.03;4.83;;;18.60;42.70;;;;;;4979057;28;20434;-68
2022/03/06 06:26:02;;;;;;;7.27;4.60;;;18.60;42.60;;;;;;4979469;28;20508;-68
2022/03/06 06:28:28;;;;;;;11.57;4.60;;;18.60;42.30;;;;;;4978917;28;20175;-67
2022/03/06 06:30:53;;;;;;;11.43;4.07;;;18.60;42.70;;;;;;4978861;28;20245;-67
2022/03/06 06:33:19;;;;;;;10.63;4.73;;;18.60;42.80;;;;;;4979366;28;20265;-65
2022/03/06 06:35:44;;;;;;;9.93;4.43;;;18.60;43.00;;;;;;4979435;28;20241;-67
2022/03/06 06:38:10;;;;;;;11.60;4.70;;;18.60;42.90;;;;;;4979011;28;20702;-67
2022/03/06 06:40:37;;;;;;;10.40;4.43;;;18.60;42.80;;;;;;4978676;28;20202;-67
2022/03/06 06:43:02;;;;;;;9.20;5.33;;;18.60;42.80;;;;;;4978926;28;20175;-66
2022/03/06 06:45:28;;;;;;;10.03;5.10;;;18.60;42.80;;;;;;4996368;28;20565;-66
2022/03/06 06:47:54;;;;;;;13.83;4.60;;;18.60;42.80;;;;;;4978800;28;20690;-68
2022/03/06 06:50:20;;;;;;;9.63;4.27;;;18.70;43.10;;;;;;4978401;28;20273;-68
2022/03/06 06:52:45;;;;;;;15.53;4.63;;;18.70;43.20;;;;;;4978923;28;20284;-68
2022/03/06 06:55:12;;;;;;;6.73;4.77;;;18.70;43.20;;;;;;4978483;28;20175;-67
2022/03/06 06:57:38;;;;;;;12.00;4.93;;;18.70;43.10;;;;;;4978664;28;20700;-68
2022/03/06 07:00:05;;;;;;;12.20;5.17;;;18.70;42.80;;;;;;4978127;28;20417;-70
2022/03/06 07:02:31;;;;;;;7.07;4.03;;;18.70;42.50;;;;;;4978479;28;20575;-69
2022/03/06 07:04:57;;;;;;;9.27;4.60;;;18.80;42.80;;;;;;4977944;28;20469;-67
2022/03/06 07:07:24;;;;;;;11.67;4.67;;;18.80;42.80;;;;;;4978538;28;20218;-69
2022/03/06 07:09:49;;;;;;;10.00;4.80;;;18.80;42.60;;;;;;4977994;28;20568;-67
2022/03/06 07:12:15;;;;;;;9.27;4.97;;;18.80;42.30;;;;;;4996065;28;20450;-65
2022/03/06 07:14:41;;;;;;;7.37;5.37;;;18.80;42.40;;;;;;4977676;28;20993;-66
2022/03/06 07:17:06;;;;;;;13.70;5.70;;;18.80;42.30;;;;;;4978013;28;20294;-68
2022/03/06 07:19:32;;;;;;;12.53;4.50;;;18.80;42.10;;;;;;4977414;28;20698;-68
2022/03/06 07:21:59;;;;;;;11.83;4.60;;;18.80;42.00;;;;;;4978097;28;20241;-68
2022/03/06 07:24:25;;;;;;;19.67;5.60;;;18.90;42.00;;;;;;4978272;28;20424;-67
2022/03/06 07:26:51;;;;;;;12.37;5.67;;;18.90;42.00;;;;;;4978088;28;20423;-68
2022/03/06 07:29:16;;;;;;;13.87;5.13;;;18.90;41.80;;;;;;4977437;28;20996;-68
2022/03/06 07:31:42;;;;;;;14.30;5.00;;;19.00;41.50;;;;;;4978077;28;20221;-68
2022/03/06 07:34:08;;;;;;;9.17;5.40;;;19.00;41.40;;;;;;4978110;28;20559;-68
2022/03/06 07:36:34;;;;;;;9.90;5.67;;;19.00;41.60;;;;;;4977872;28;20186;-67
2022/03/06 07:39:00;;;;;;;10.23;5.80;;;19.10;41.50;;;;;;4977549;28;20675;-68
2022/03/06 07:41:25;;;;;;;16.40;7.00;;;19.10;41.20;;;;;;4977644;28;20450;-65
2022/03/06 07:43:51;;;;;;;20.10;10.10;;;19.10;41.30;;;;;;4977876;28;20419;-67
2022/03/06 07:46:17;;;;;;;23.40;9.13;;;19.20;41.10;;;;;;4977484;28;20226;-66
2022/03/06 07:48:42;;;;;;;21.13;8.47;;;19.20;41.00;;;;;;4977462;28;20182;-66
2022/03/06 07:51:08;;;;;;;20.57;9.73;;;19.20;41.30;;;;;;4977259;28;20210;-67
2022/03/06 07:53:33;;;;;;;19.40;8.87;;;19.30;41.00;;;;;;4977709;28;20179;-66
2022/03/06 07:55:59;;;;;;;18.33;9.17;;;19.30;41.10;;;;;;4977677;28;20176;-66
2022/03/06 07:58:25;;;;;;;15.47;8.47;;;19.30;41.10;;;;;;4977021;28;20671;-67
2022/03/06 08:00:50;;;;;;;22.90;9.00;;;19.40;41.30;;;;;;4977288;28;20206;-70
2022/03/06 08:03:16;;;;;;;16.50;8.07;;;19.40;41.40;;;;;;4977554;28;20190;-71
2022/03/06 08:05:43;;;;;;;15.30;8.90;;;19.40;41.30;;;;;;4976961;28;20175;-70
2022/03/06 08:08:08;;;;;;;23.57;10.13;;;19.40;41.30;;;;;;4977100;28;20896;-69
2022/03/06 08:10:35;;;;;;;28.87;13.23;;;19.50;41.30;;;;;;4976746;28;20430;-69
2022/03/06 08:13:00;;;;;;;30.93;13.60;;;19.50;41.00;;;;;;4977359;28;20226;-68
2022/03/06 08:15:26;;;;;;;49.90;12.70;;;19.50;41.10;;;;;;4976529;28;20520;-67
2022/03/06 08:17:52;;;;;;;24.87;12.90;;;19.40;41.10;;;;;;4975897;28;20649;-67
2022/03/06 08:20:18;;;;;;;23.37;11.97;;;19.50;41.50;;;;;;4975501;28;20210;-67
2022/03/06 08:22:43;;;;;;;27.47;12.97;;;19.50;41.10;;;;;;4976735;28;20939;-68
2022/03/06 08:25:12;;;;;;;26.13;12.10;;;19.50;41.40;;;;;;4976814;28;20540;-68
2022/03/06 08:27:38;;;;;;;27.23;12.20;;;19.40;41.20;;;;;;4994274;28;20178;-68
2022/03/06 08:30:05;;;;;;;30.93;13.23;;;19.40;41.10;;;;;;4975786;28;20796;-67
2022/03/06 08:32:31;;;;;;;31.43;11.17;;;19.40;41.10;;;;;;4976527;28;20258;-68
2022/03/06 08:35:08;;;;;;;31.57;12.40;;;19.40;41.10;;;;;;4976971;28;20514;-68
2022/03/06 08:37:34;;;;;;;32.80;12.00;;;19.40;41.20;;;;;;4994321;28;20454;-67
2022/03/06 08:39:59;;;;;;;23.77;10.87;;;19.40;40.80;;;;;;4976080;28;20927;-68
2022/03/06 08:42:25;;;;;;;28.33;11.87;;;19.40;41.10;;;;;;4991277;28;20629;-68
2022/03/06 08:44:51;;;;;;;24.17;11.10;;;19.40;41.00;;;;;;4975635;28;20171;-68
2022/03/06 08:47:17;;;;;;;20.90;10.43;;;19.40;40.70;;;;;;4975026;28;20179;-68
2022/03/06 08:49:43;;;;;;;23.60;11.27;;;19.40;40.60;;;;;;4993647;28;20426;-68
2022/03/06 08:52:10;;;;;;;27.73;10.40;;;19.40;40.70;;;;;;4992458;28;20438;-67
2022/03/06 08:54:37;;;;;;;19.43;9.90;;;19.40;41.00;;;;;;4993695;28;20206;-66
2022/03/06 08:57:03;;;;;;;25.63;9.90;;;19.40;40.70;;;;;;4993094;28;20818;-68
2022/03/06 08:59:29;;;;;;;18.67;10.33;;;19.50;40.50;;;;;;4993361;28;20468;-68
2022/03/06 09:01:55;;;;;;;18.37;9.60;;;19.50;40.40;;;;;;4976239;28;20818;-69
2022/03/06 09:04:23;;;;;;;21.70;9.90;;;19.50;40.30;;;;;;4976453;28;20193;-68
2022/03/06 09:06:50;;;;;;;20.77;8.73;;;19.50;40.00;;;;;;4976285;28;20455;-69
2022/03/06 09:09:15;;;;;;;26.00;9.30;;;19.60;40.10;;;;;;4975934;28;20448;-69
2022/03/06 09:11:41;;;;;;;19.00;9.83;;;19.60;40.00;;;;;;4976205;28;20513;-69
2022/03/06 09:14:07;;;;;;;17.30;8.47;;;19.80;40.00;;;;;;4976299;28;20179;-69
2022/03/06 09:16:33;;;;;;;16.00;9.50;;;19.80;39.60;;;;;;4976114;28;20175;-68
2022/03/06 09:18:59;;;;;;;22.83;9.13;;;20.00;39.70;;;;;;4975826;28;20182;-68
2022/03/06 09:21:25;;;;;;;16.30;8.43;;;20.20;38.70;;;;;;4975976;28;20799;-69
2022/03/06 09:23:51;;;;;;;14.90;8.63;;;20.40;38.50;;;;;;4976176;28;20524;-67
2022/03/06 09:26:16;;;;;;;16.53;8.93;;;20.50;37.60;;;;;;4976266;28;20599;-68
2022/03/06 09:28:42;;;;;;;18.07;8.50;;;20.50;36.80;;;;;;4975508;28;20179;-69
2022/03/06 09:31:08;;;;;;;17.97;8.77;;;20.60;37.70;;;;;;4976138;28;20199;-69
2022/03/06 09:33:34;;;;;;;13.67;8.20;;;20.70;37.00;;;;;;4993645;28;20167;-69
2022/03/06 09:36:01;;;;;;;16.80;6.90;;;20.90;38.20;;;;;;4976136;28;20965;-69
2022/03/06 09:38:27;;;;;;;21.47;7.63;;;20.90;36.70;;;;;;4975782;28;20203;-69
2022/03/06 09:40:54;;;;;;;14.10;6.80;;;21.00;37.40;;;;;;4975732;28;20501;-67
2022/03/06 09:43:20;;;;;;;12.60;7.50;;;21.10;40.40;;;;;;4976115;28;20201;-67
2022/03/06 09:45:48;;;;;;;23.53;8.10;;;21.20;39.80;;;;;;4975969;28;20548;-68
2022/03/06 09:48:16;;;;;;;28.63;11.00;;;21.30;41.90;;;;;;4976042;28;20202;-67
2022/03/06 09:50:43;;;;;;;36.07;12.47;;;21.30;40.30;;;;;;4991454;28;20923;-68
2022/03/06 09:53:09;;;;;;;34.57;12.57;;;21.40;41.00;;;;;;4992034;28;20480;-68
2022/03/06 09:55:35;;;;;;;43.33;16.33;;;21.40;41.30;;;;;;4992265;28;20420;-68
2022/03/06 09:58:01;;;;;;;52.83;17.20;;;21.50;40.20;;;;;;4975909;28;20807;-68
2022/03/06 10:00:27;;;;;;;50.60;19.90;;;21.50;40.80;;;;;;4991651;28;20206;-67
2022/03/06 10:03:00;;;;;;;53.43;18.83;;;21.50;40.80;;;;;;4976035;28;20414;-68
2022/03/06 10:05:37;;;;;;;55.43;19.73;;;21.60;40.60;;;;;;4993398;28;20176;-67
2022/03/06 10:08:26;;;;;;;55.37;20.73;;;21.60;40.30;;;;;;4990728;28;20476;-68
2022/03/06 10:11:05;;;;;;;49.73;20.70;;;21.60;40.40;;;;;;4991433;28;20572;-69
2022/03/06 10:13:42;;;;;;;56.40;21.00;;;21.60;40.30;;;;;;4975804;28;20409;-68
2022/03/06 10:16:15;;;;;;;67.03;21.57;;;21.60;40.20;;;;;;4975501;28;20422;-68
2022/03/06 10:18:47;;;;;;;43.57;17.60;;;21.70;40.10;;;;;;4992936;28;20482;-68
2022/03/06 10:21:19;;;;;;;34.53;15.07;;;21.70;36.60;;;;;;4973629;28;20787;-69
2022/03/06 10:23:47;;;;;;;29.30;15.10;;;21.20;32.70;;;;;;4975547;28;20767;-68
2022/03/06 10:26:21;;;;;;;35.73;16.10;;;21.10;35.00;;;;;;4974852;28;20406;-68
2022/03/06 10:28:50;;;;;;;32.83;16.07;;;21.10;33.60;;;;;;4975008;28;20413;-68
2022/03/06 10:31:17;;;;;;;26.83;13.73;;;21.10;32.70;;;;;;4987074;28;20468;-69
2022/03/06 10:34:05;;;;;;;38.17;15.90;;;21.00;32.20;;;;;;4994474;28;20459;-69
2022/03/06 10:36:32;;;;;;;34.57;13.90;;;21.00;32.00;;;;;;4981087;28;20418;-69
2022/03/06 10:38:58;;;;;;;32.53;13.50;;;20.60;29.70;;;;;;4990922;28;20426;-70
2022/03/06 10:41:34;;;;;;;32.37;13.07;;;20.70;33.40;;;;;;5004618;28;20513;-69
2022/03/06 10:44:00;;;;;;;33.10;13.80;;;20.90;33.00;;;;;;4981394;28;20194;-69
2022/03/06 10:46:27;;;;;;;27.80;12.23;;;20.80;31.30;;;;;;4978176;28;20500;-73
2022/03/06 10:48:58;;;;;;;32.97;12.33;;;20.50;30.70;;;;;;4995287;28;20173;-68
2022/03/06 10:51:25;;;;;;;25.37;10.50;;;20.20;30.60;;;;;;4976157;28;20453;-68
2022/03/06 10:53:58;;;;;;;21.10;9.97;;;20.20;30.70;;;;;;4977514;28;20411;-68
2022/03/06 10:56:25;;;;;;;15.20;9.03;;;20.00;29.90;;;;;;4977286;28;20485;-68
2022/03/06 10:58:54;;;;;;;22.23;9.70;;;20.10;29.70;;;;;;4976246;28;20552;-68
2022/03/06 11:01:22;;;;;;;15.53;9.47;;;19.80;28.70;;;;;;4977415;28;20430;-68
2022/03/06 11:03:50;;;;;;;17.50;8.77;;;19.60;29.50;;;;;;4977047;28;20419;-68
2022/03/06 11:06:20;;;;;;;14.93;8.80;;;19.80;29.70;;;;;;4977478;28;20421;-69
2022/03/06 11:08:46;;;;;;;14.53;7.90;;;19.90;29.20;;;;;;4994654;28;20433;-69
2022/03/06 11:11:14;;;;;;;15.20;8.83;;;20.00;29.20;;;;;;4979028;28;20465;-68
2022/03/06 11:13:40;;;;;;;14.93;8.20;;;20.10;29.40;;;;;;4977151;28;20846;-67
2022/03/06 11:16:05;;;;;;;16.33;8.70;;;20.00;29.30;;;;;;4976266;28;20418;-67
2022/03/06 11:18:32;;;;;;;12.37;7.47;;;20.10;31.40;;;;;;4976960;28;20322;-66
2022/03/06 11:21:00;;;;;;;13.93;7.53;;;20.50;34.10;;;;;;4976914;28;20215;-69
2022/03/06 11:23:40;;;;;;;16.60;7.27;;;20.70;34.30;;;;;;4977060;28;20414;-67
2022/03/06 11:26:15;;;;;;;89.53;8.37;;;20.90;35.10;;;;;;4976756;28;20505;-69
2022/03/06 11:28:58;;;;;;;15.17;6.40;;;21.00;36.00;;;;;;4976869;28;20409;-69
2022/03/06 11:31:24;;;;;;;13.60;6.70;;;21.00;36.00;;;;;;4977189;28;20489;-70
2022/03/06 11:33:56;;;;;;;12.00;6.33;;;21.00;36.40;;;;;;4975276;28;20785;-70
2022/03/06 11:36:25;;;;;;;11.30;6.40;;;21.10;36.70;;;;;;4979148;28;20187;-69
2022/03/06 11:38:52;;;;;;;8.60;5.57;;;21.00;37.00;;;;;;4976311;28;20853;-69
2022/03/06 11:41:18;;;;;;;13.40;6.00;;;21.00;37.10;;;;;;4976902;28;21333;-68
2022/03/06 11:43:50;;;;;;;16.77;6.13;;;21.00;37.30;;;;;;4976827;28;20419;-65
2022/03/06 11:46:25;;;;;;;11.33;5.57;;;21.00;37.90;;;;;;4975083;28;20418;-66
2022/03/06 11:48:51;;;;;;;13.60;6.47;;;21.00;37.90;;;;;;4974728;28;20966;-65
2022/03/06 11:53:46;;;;;;;11.87;5.40;;;21.00;38.10;;;;;;4992180;28;20202;-65
2022/03/06 11:56:31;;;;;;;8.53;5.47;;;21.00;38.30;;;;;;4975583;28;20540;-66
2022/03/06 11:58:58;;;;;;;10.83;5.47;;;21.00;38.30;;;;;;4992211;28;20489;-67
2022/03/06 12:01:27;;;;;;;10.67;5.93;;;21.00;38.40;;;;;;4991655;28;20426;-67
2022/03/06 12:04:02;;;;;;;10.53;5.13;;;21.00;38.60;;;;;;4976182;28;20466;-67
2022/03/06 12:06:27;;;;;;;10.47;5.17;;;21.00;38.70;;;;;;4975467;28;20800;-66
2022/03/06 12:08:54;;;;;;;14.37;5.43;;;21.10;38.90;;;;;;4975841;28;20479;-67
2022/03/06 12:11:20;;;;;;;10.20;5.10;;;21.10;38.80;;;;;;4975126;28;20287;-67
2022/03/06 12:13:50;;;;;;;10.13;5.10;;;21.10;39.00;;;;;;4975861;28;20441;-66
2022/03/06 12:16:17;;;;;;;9.60;5.53;;;21.10;39.10;;;;;;4976044;28;20506;-66
2022/03/06 12:19:02;;;;;;;6.63;4.07;;;21.10;38.90;;;;;;4991140;28;20462;-67
2022/03/06 12:21:37;;;;;;;7.97;4.90;;;21.20;39.30;;;;;;4974851;28;20540;-66
2022/03/06 12:24:11;;;;;;;9.53;5.07;;;21.20;39.20;;;;;;4976264;28;20422;-67
2022/03/06 12:26:46;;;;;;;8.57;4.33;;;21.20;39.60;;;;;;4976102;28;20880;-67
2022/03/06 12:29:47;;;;;;;14.73;5.27;;;21.20;39.70;;;;;;4974046;28;20779;-67
2022/03/06 12:32:25;;;;;;;10.43;4.90;;;21.20;40.00;;;;;;4968788;28;20443;-67
2022/03/06 12:35:05;;;;;;;8.53;4.50;;;21.20;40.00;;;;;;4975124;28;20426;-69
2022/03/06 12:37:42;;;;;;;8.20;4.33;;;21.20;39.70;;;;;;4973487;28;20811;-70
2022/03/06 12:40:20;;;;;;;10.60;5.17;;;21.20;39.80;;;;;;4991463;28;20444;-69
2022/03/06 12:42:50;;;;;;;8.80;4.53;;;21.20;40.40;;;;;;4974956;28;20497;-69